Espyville, Pennsylvania
Current Conditions -  °F | °C
As of 10:53 PM on Friday 24 Oct 2014 (Local Time) from KGKJ Reporting Station
Overcast Overcast  
Wind Chill:   Ceiling: 3300
Heat Index:   Visibility: 10mi
Dew Point:   Wind: 5mph
Humidity: 74%   Direction: 200°SSW
Pressure: 29.99"   Gusts: NA
Location:  41.6811°N, 80.4288°W
Report Text: KGKJ 250253Z AUTO 20004KT 10SM BKN033 OVC050 09/05 A2999 RMK AO2 SLP159 T00940050 58003 TSNO
Loading
Personal Weather Stations






























Interactive Weather Map
Tropical Storm Tracking
New forecast layout! Learn more

10-Day Weather Forecast

Advertisements
Track Severe Weather on mobile